KDSV/DSV METAR and TAF weather

Enter ICAO airport designator
Station Type Date Time Source
KDSV METAR 2021/09/23 22:54 UTC NOAA

KDSV 232254Z AUTO 18003KT 10SM SCT060 17/10 A2987 RMK AO2 SLP121 T01670100


Station Type Date Time Source
KDSV Decoded METAR 2021/09/23 22:54 UTC NOAA

DANSVILLE MUNICIPAL AIRPORT, NY, United States (KDSV) 42-34N 077-43W 198M
Sep 23, 2021 - 06:54 PM EDT / 2021.09.23 2254 UTC
Wind: from the S (180 degrees) at 3 MPH (3 KT):0
Visibility: 10 mile(s):0
Sky conditions: partly cloudy
Temperature: 62.1 F (16.7 C)
Dew Point: 50.0 F (10.0 C)
Relative Humidity: 64%
Pressure (altimeter): 29.87 in. Hg (1011 hPa)
ob: KDSV 232254Z AUTO 18003KT 10SM SCT060 17/10 A2987 RMK AO2 SLP121 T01670100
cycle: 23

Station Type Date Time Source
KDSV TAF UTC NOAA

Error!

Example: see airport list